createdAt,value
2023-08-10T00:01:22.304Z,47.50
2023-08-10T00:03:50.288Z,48.80
2023-08-10T00:06:18.377Z,47.80
2023-08-10T00:08:46.519Z,47.40
2023-08-10T00:11:15.915Z,46.27
2023-08-10T00:13:45.599Z,45.53
2023-08-10T00:16:14.201Z,44.17
2023-08-10T00:18:42.197Z,44.23
2023-08-10T00:21:11.454Z,45.10
2023-08-10T00:23:39.665Z,44.50
2023-08-10T00:26:07.609Z,44.37
2023-08-10T00:28:37.256Z,43.80
2023-08-10T00:31:05.939Z,43.07
2023-08-10T00:33:35.456Z,41.37
2023-08-10T00:36:07.878Z,41.73
2023-08-10T00:38:36.045Z,40.67
2023-08-10T00:41:04.448Z,41.27
2023-08-10T00:43:32.807Z,41.33
2023-08-10T00:46:02.684Z,40.27
2023-08-10T00:48:31.851Z,39.83
2023-08-10T00:51:00.314Z,37.80
2023-08-10T00:53:28.575Z,38.07
2023-08-10T00:55:59.371Z,38.73
2023-08-10T00:58:28.803Z,37.90
2023-08-10T01:00:58.077Z,37.27
2023-08-10T01:03:27.549Z,35.53
2023-08-10T01:06:08.038Z,34.60
2023-08-10T01:08:46.150Z,34.20
2023-08-10T01:11:22.985Z,36.20
2023-08-10T01:13:59.855Z,35.80
2023-08-10T01:16:30.153Z,37.90
2023-08-10T01:19:00.996Z,37.17
2023-08-10T01:21:39.817Z,37.60
2023-08-10T01:24:17.246Z,38.47
2023-08-10T01:26:49.451Z,40.43
2023-08-10T01:29:17.997Z,42.17
2023-08-10T01:31:46.437Z,44.30
2023-08-10T01:34:14.488Z,46.47
2023-08-10T01:36:42.619Z,46.60
2023-08-10T01:39:10.556Z,48.30
2023-08-10T01:41:38.516Z,50.30
2023-08-10T01:44:08.899Z,51.13
2023-08-10T01:46:39.513Z,53.00
2023-08-10T01:49:11.888Z,54.50
2023-08-10T01:51:41.915Z,55.30
2023-08-10T01:54:12.717Z,57.00
2023-08-10T01:56:40.781Z,60.50
2023-08-10T01:59:10.547Z,62.90
2023-08-10T02:01:38.694Z,64.60
2023-08-10T02:04:06.998Z,67.70
2023-08-10T02:06:40.231Z,67.20
2023-08-10T02:09:08.463Z,66.47
2023-08-10T02:11:36.418Z,66.53
2023-08-10T02:14:04.445Z,66.90
2023-08-10T02:16:33.991Z,65.37
2023-08-10T02:19:01.974Z,65.87
2023-08-10T02:21:29.917Z,66.53
2023-08-10T02:23:57.983Z,67.47
2023-08-10T02:26:25.979Z,70.00
2023-08-10T02:28:53.974Z,69.47
2023-08-10T02:31:22.907Z,70.00
2023-08-10T02:33:52.299Z,74.00
2023-08-10T02:36:20.395Z,75.40
2023-08-10T02:38:48.500Z,76.93
2023-08-10T02:41:16.572Z,79.53
2023-08-10T02:43:44.610Z,81.30
2023-08-10T02:46:12.717Z,84.80
2023-08-10T02:48:40.766Z,87.40
2023-08-10T02:51:10.295Z,91.17
2023-08-10T02:53:38.260Z,94.53
2023-08-10T02:56:06.418Z,97.97
2023-08-10T02:58:34.810Z,95.40
2023-08-10T03:01:08.529Z,100.53
2023-08-10T03:03:36.854Z,97.80
2023-08-10T03:06:05.124Z,99.17
2023-08-10T03:08:34.534Z,98.70
2023-08-10T03:11:04.145Z,98.27
2023-08-10T03:13:32.163Z,99.20
2023-08-10T03:16:01.763Z,101.70
2023-08-10T03:18:29.825Z,104.73
2023-08-10T03:20:57.919Z,102.40
2023-08-10T03:23:25.929Z,104.93
2023-08-10T03:25:55.284Z,108.53
2023-08-10T03:28:24.132Z,106.80
2023-08-10T03:30:52.329Z,108.00
2023-08-10T03:33:20.570Z,106.47
2023-08-10T03:35:48.570Z,105.70
2023-08-10T03:38:16.686Z,101.13
2023-08-10T03:40:44.792Z,107.37
2023-08-10T03:43:14.096Z,105.30
2023-08-10T03:45:42.181Z,102.33
2023-08-10T03:48:10.484Z,103.57
2023-08-10T03:50:38.641Z,105.97
2023-08-10T03:53:07.365Z,101.57
2023-08-10T03:55:35.478Z,102.43
2023-08-10T03:58:03.819Z,103.83
2023-08-10T04:00:33.156Z,104.90
2023-08-10T04:03:01.384Z,105.53
2023-08-10T04:05:29.379Z,113.27
2023-08-10T04:07:57.291Z,113.07
2023-08-10T04:10:26.165Z,113.00
2023-08-10T04:12:54.128Z,111.20
2023-08-10T04:15:22.114Z,110.83
2023-08-10T04:17:53.869Z,111.57
2023-08-10T04:20:21.908Z,109.97
2023-08-10T04:22:49.928Z,110.87
2023-08-10T04:25:17.935Z,107.47
2023-08-10T04:27:46.154Z,105.40
2023-08-10T04:30:15.260Z,100.93
2023-08-10T04:32:46.214Z,94.30
2023-08-10T04:35:15.907Z,92.50
2023-08-10T04:37:44.398Z,87.53
2023-08-10T04:40:13.648Z,84.00
2023-08-10T04:42:43.240Z,83.17
2023-08-10T04:45:12.203Z,77.70
2023-08-10T04:47:40.510Z,74.87
2023-08-10T04:50:12.870Z,71.53
2023-08-10T04:52:43.405Z,69.97
2023-08-10T04:55:12.064Z,67.90
2023-08-10T04:57:40.141Z,67.53
2023-08-10T05:00:12.212Z,65.70
2023-08-10T05:02:40.221Z,64.73
2023-08-10T05:05:09.171Z,64.13
2023-08-10T05:07:38.434Z,64.30
2023-08-10T05:10:09.962Z,63.07
2023-08-10T05:12:39.607Z,60.27
2023-08-10T05:15:11.236Z,57.20
2023-08-10T05:17:40.779Z,54.83
2023-08-10T05:20:12.024Z,51.53
2023-08-10T05:22:41.656Z,47.63
2023-08-10T05:25:11.892Z,47.50
2023-08-10T05:27:40.684Z,45.33
2023-08-10T05:30:12.546Z,44.10
2023-08-10T05:32:41.139Z,42.20
2023-08-10T05:35:10.551Z,40.87
2023-08-10T05:37:39.696Z,41.07
2023-08-10T05:40:11.087Z,38.30
2023-08-10T05:42:41.756Z,37.10
2023-08-10T05:45:11.312Z,36.47
2023-08-10T05:47:39.405Z,37.23
2023-08-10T05:50:08.529Z,34.87
2023-08-10T05:52:36.560Z,35.07
2023-08-10T05:55:05.226Z,33.80
2023-08-10T05:57:33.280Z,32.83
2023-08-10T06:00:02.898Z,31.97
2023-08-10T06:02:31.223Z,33.30
2023-08-10T06:04:59.245Z,34.40
2023-08-10T06:07:27.461Z,32.17
2023-08-10T06:09:55.499Z,33.50
2023-08-10T06:12:23.488Z,28.90
2023-08-10T06:14:51.609Z,29.07
2023-08-10T06:17:21.046Z,29.70
2023-08-10T06:19:53.513Z,28.20
2023-08-10T06:22:22.371Z,25.63
2023-08-10T06:24:50.469Z,25.27
2023-08-10T06:27:18.949Z,25.07
2023-08-10T06:29:46.941Z,24.47
2023-08-10T06:32:14.988Z,24.07
2023-08-10T06:34:44.548Z,23.93
2023-08-10T06:37:15.077Z,24.47
2023-08-10T06:39:43.336Z,24.07
2023-08-10T06:42:11.725Z,23.67
2023-08-10T06:44:39.747Z,24.00
2023-08-10T06:47:07.791Z,23.77
2023-08-10T06:49:36.116Z,22.67
2023-08-10T06:52:06.929Z,22.77
2023-08-10T06:54:35.141Z,22.83
2023-08-10T06:57:04.014Z,22.77
2023-08-10T07:00:32.827Z,22.20
2023-08-10T07:02:22.517Z,21.63
2023-08-10T07:04:50.747Z,20.90
2023-08-10T07:07:20.207Z,21.27
2023-08-10T07:09:48.316Z,21.37
2023-08-10T07:12:16.436Z,22.20
2023-08-10T07:14:44.395Z,22.07
2023-08-10T07:17:13.678Z,21.37
2023-08-10T07:19:41.686Z,21.37
2023-08-10T07:22:09.821Z,21.50
2023-08-10T07:24:39.523Z,21.53
2023-08-10T07:27:09.649Z,21.17
2023-08-10T07:29:38.214Z,20.77
2023-08-10T07:32:08.487Z,20.67
2023-08-10T07:34:38.434Z,21.07
2023-08-10T07:37:06.725Z,20.80
2023-08-10T07:39:34.732Z,20.73
2023-08-10T07:42:04.595Z,20.47
2023-08-10T07:44:32.973Z,20.43
2023-08-10T07:47:00.974Z,20.80
2023-08-10T07:49:29.369Z,20.80
2023-08-10T07:51:57.598Z,20.93
2023-08-10T07:54:26.218Z,20.80
2023-08-10T07:56:54.289Z,20.73
2023-08-10T07:59:23.872Z,20.40
2023-08-10T08:01:55.039Z,20.40
2023-08-10T08:04:23.452Z,20.37
2023-08-10T08:06:51.626Z,20.57
2023-08-10T08:09:19.910Z,20.87
2023-08-10T08:11:48.380Z,20.87
2023-08-10T08:14:16.587Z,21.00
2023-08-10T08:16:46.388Z,20.60
2023-08-10T08:19:14.570Z,20.70
2023-08-10T08:21:43.224Z,20.50
2023-08-10T08:24:11.498Z,20.47
2023-08-10T08:26:41.769Z,20.97
2023-08-10T08:29:09.820Z,20.70
2023-08-10T08:31:38.075Z,20.67
2023-08-10T08:34:07.675Z,20.40
2023-08-10T08:36:35.709Z,20.37
2023-08-10T08:39:04.038Z,21.03
2023-08-10T08:41:37.547Z,20.67
2023-08-10T08:44:07.388Z,20.90
2023-08-10T08:46:37.894Z,20.97
2023-08-10T08:49:07.996Z,20.70
2023-08-10T08:51:36.620Z,21.20
2023-08-10T08:54:13.890Z,21.20
2023-08-10T08:56:42.095Z,20.67
2023-08-10T08:59:12.378Z,20.83
2023-08-10T09:01:41.312Z,20.70
2023-08-10T09:04:11.057Z,20.73
2023-08-10T09:06:40.394Z,20.63
2023-08-10T09:09:08.558Z,21.20
2023-08-10T09:11:38.612Z,21.07
2023-08-10T09:14:08.589Z,21.17
2023-08-10T09:16:38.991Z,21.27
2023-08-10T09:19:11.812Z,21.37
2023-08-10T09:21:42.048Z,21.60
2023-08-10T09:24:11.819Z,21.03
2023-08-10T09:26:42.476Z,21.20
2023-08-10T09:29:10.541Z,20.80
2023-08-10T09:31:44.164Z,20.50
2023-08-10T09:34:15.066Z,20.73
2023-08-10T09:36:54.815Z,20.57
2023-08-10T09:39:22.947Z,20.53
2023-08-10T09:41:56.458Z,20.67
2023-08-10T09:44:24.901Z,20.93
2023-08-10T09:47:02.215Z,20.63
2023-08-10T09:49:30.508Z,20.37
2023-08-10T09:52:01.390Z,21.17
2023-08-10T09:54:30.508Z,21.23
2023-08-10T09:57:00.225Z,20.70
2023-08-10T09:59:28.496Z,20.70
2023-08-10T10:01:57.778Z,20.70
2023-08-10T10:04:26.946Z,20.77
2023-08-10T10:06:57.926Z,20.43
2023-08-10T10:09:28.451Z,20.50
2023-08-10T10:11:57.823Z,20.37
2023-08-10T10:14:26.586Z,20.47
2023-08-10T10:16:55.926Z,20.30
2023-08-10T10:19:23.923Z,20.13
2023-08-10T10:21:52.268Z,20.27
2023-08-10T10:24:20.667Z,20.43
2023-08-10T10:27:01.590Z,20.07
2023-08-10T10:29:40.280Z,19.77
2023-08-10T10:32:13.947Z,20.20
2023-08-10T10:34:42.534Z,19.90
2023-08-10T10:37:14.632Z,19.93
2023-08-10T10:39:43.162Z,19.90
2023-08-10T10:42:13.381Z,20.07
2023-08-10T10:45:05.458Z,19.80
2023-08-10T10:47:38.400Z,20.03
2023-08-10T10:50:17.142Z,20.43
2023-08-10T10:52:55.917Z,20.30
2023-08-10T10:55:25.162Z,20.20
2023-08-10T10:57:55.487Z,20.30
2023-08-10T11:00:25.329Z,19.77
2023-08-10T11:02:54.050Z,19.60
2023-08-10T11:05:22.400Z,19.77
2023-08-10T11:07:52.106Z,19.87
2023-08-10T11:10:23.071Z,20.00
2023-08-10T11:12:53.299Z,19.73
2023-08-10T11:15:24.075Z,19.80
2023-08-10T11:17:55.830Z,19.73
2023-08-10T11:20:24.528Z,19.97
2023-08-10T11:22:54.167Z,19.67
2023-08-10T11:25:24.875Z,19.83
2023-08-10T11:27:55.587Z,19.83
2023-08-10T11:30:26.198Z,19.63
2023-08-10T11:32:55.730Z,19.80
2023-08-10T11:35:25.927Z,19.73
2023-08-10T11:37:54.128Z,19.80
2023-08-10T11:40:23.226Z,19.77
2023-08-10T11:43:04.250Z,20.20
2023-08-10T11:45:34.408Z,20.10
2023-08-10T11:48:04.526Z,20.07
2023-08-10T11:50:33.356Z,20.10
2023-08-10T11:53:11.128Z,20.20
2023-08-10T11:55:43.983Z,19.97
2023-08-10T11:58:16.069Z,20.07
2023-08-10T12:00:50.885Z,21.07
2023-08-10T12:03:24.524Z,20.83
2023-08-10T12:05:56.032Z,20.83
2023-08-10T12:08:26.933Z,21.40
2023-08-10T12:11:02.525Z,20.73
2023-08-10T12:13:31.032Z,19.97
2023-08-10T12:16:04.013Z,21.20
2023-08-10T12:18:32.072Z,20.43
2023-08-10T12:21:00.205Z,19.63
2023-08-10T12:23:28.195Z,22.27
2023-08-10T12:25:56.118Z,22.40
2023-08-10T12:28:24.078Z,21.93
2023-08-10T12:30:53.279Z,20.23
2023-08-10T12:33:22.669Z,20.17
2023-08-10T12:35:51.278Z,20.27
2023-08-10T12:38:21.564Z,20.20
2023-08-10T12:40:49.617Z,19.90
2023-08-10T12:43:17.864Z,20.13
2023-08-10T12:45:47.065Z,20.03
2023-08-10T12:48:15.237Z,19.87
2023-08-10T12:50:44.702Z,19.83
2023-08-10T12:53:12.831Z,20.30
2023-08-10T12:55:40.722Z,20.40
2023-08-10T12:58:12.604Z,20.33
2023-08-10T13:00:40.706Z,19.97
2023-08-10T13:03:09.301Z,19.73
2023-08-10T13:05:37.299Z,19.87
2023-08-10T13:08:09.101Z,19.70
2023-08-10T13:10:37.007Z,19.77
2023-08-10T13:13:05.677Z,19.77
2023-08-10T13:15:36.744Z,19.80
2023-08-10T13:18:05.258Z,19.90
2023-08-10T13:20:34.068Z,19.87
2023-08-10T13:23:02.339Z,20.10
2023-08-10T13:25:31.686Z,19.93
2023-08-10T13:27:59.655Z,19.83
2023-08-10T13:30:28.955Z,19.87
2023-08-10T13:32:56.964Z,19.87
2023-08-10T13:35:24.892Z,19.73
2023-08-10T13:37:52.897Z,19.93
2023-08-10T13:40:21.059Z,20.10
2023-08-10T13:42:50.735Z,20.03
2023-08-10T13:45:18.744Z,19.83
2023-08-10T13:47:46.688Z,19.77
2023-08-10T13:50:15.262Z,19.83
2023-08-10T13:52:43.340Z,19.97
2023-08-10T13:55:11.618Z,19.73
2023-08-10T13:57:39.581Z,20.10
2023-08-10T14:00:10.894Z,20.07
2023-08-10T14:02:39.142Z,20.10
2023-08-10T14:05:10.692Z,20.10
2023-08-10T14:07:38.728Z,20.07
2023-08-10T14:10:07.972Z,19.73
2023-08-10T14:12:36.063Z,19.87
2023-08-10T14:15:04.320Z,19.77
2023-08-10T14:17:33.893Z,19.57
2023-08-10T14:20:02.127Z,19.50
2023-08-10T14:22:30.151Z,19.50
2023-08-10T14:24:58.150Z,19.90
2023-08-10T14:27:27.102Z,20.10
2023-08-10T14:29:55.338Z,20.33
2023-08-10T14:32:24.787Z,20.07
2023-08-10T14:34:54.228Z,20.13
2023-08-10T14:37:22.273Z,19.87
2023-08-10T14:39:50.154Z,19.97
2023-08-10T14:42:18.267Z,20.43
2023-08-10T14:44:46.286Z,20.17
2023-08-10T14:47:14.225Z,20.20
2023-08-10T14:49:42.296Z,20.37
2023-08-10T14:52:11.867Z,20.30
2023-08-10T14:54:39.748Z,19.87
2023-08-10T14:57:08.125Z,20.37
2023-08-10T14:59:37.956Z,19.83
2023-08-10T15:02:06.485Z,19.87
2023-08-10T15:04:34.783Z,19.73
2023-08-10T15:07:03.182Z,19.83
2023-08-10T15:09:32.535Z,19.80
2023-08-10T15:12:00.497Z,20.00
2023-08-10T15:14:28.371Z,20.37
2023-08-10T15:16:56.371Z,20.73
2023-08-10T15:19:24.280Z,20.47
2023-08-10T15:21:52.209Z,20.30
2023-08-10T15:24:20.231Z,20.67
2023-08-10T15:26:49.673Z,20.70
2023-08-10T15:29:17.657Z,20.50
2023-08-10T15:31:45.524Z,20.53
2023-08-10T15:34:13.545Z,20.50
2023-08-10T15:36:41.710Z,20.20
2023-08-10T15:39:09.578Z,20.20
2023-08-10T15:41:37.676Z,20.20
2023-08-10T15:44:08.332Z,20.27
2023-08-10T15:46:36.251Z,20.40
2023-08-10T15:49:04.299Z,20.23
2023-08-10T15:51:32.550Z,19.83
2023-08-10T15:54:00.411Z,19.97
2023-08-10T15:56:28.283Z,20.10
2023-08-10T15:58:56.400Z,20.50
2023-08-10T16:01:26.100Z,20.00
2023-08-10T16:03:54.610Z,20.50
2023-08-10T16:06:22.536Z,20.40
2023-08-10T16:08:51.438Z,20.67
2023-08-10T16:11:19.826Z,20.50
2023-08-10T16:13:48.161Z,20.47
2023-08-10T16:16:16.098Z,20.47
2023-08-10T16:18:45.873Z,20.50
2023-08-10T16:21:14.650Z,20.27
2023-08-10T16:23:42.654Z,20.23
2023-08-10T16:26:10.540Z,20.40
2023-08-10T16:28:38.764Z,20.50
2023-08-10T16:31:07.760Z,20.67
2023-08-10T16:33:35.856Z,20.53
2023-08-10T16:36:05.676Z,20.33
2023-08-10T16:38:34.254Z,20.20
2023-08-10T16:41:02.293Z,20.43
2023-08-10T16:43:30.305Z,20.30
2023-08-10T16:45:58.791Z,20.23
2023-08-10T16:48:26.812Z,20.20
2023-08-10T16:50:55.902Z,20.30
2023-08-10T16:53:25.428Z,20.53
2023-08-10T16:55:56.691Z,20.77
2023-08-10T16:58:25.402Z,21.50
2023-08-10T17:00:54.070Z,21.03
2023-08-10T17:03:22.199Z,20.90
2023-08-10T17:05:50.375Z,21.00
2023-08-10T17:08:19.203Z,20.47
2023-08-10T17:10:48.718Z,20.07
2023-08-10T17:13:16.951Z,20.37
2023-08-10T17:15:45.148Z,20.30
2023-08-10T17:18:13.140Z,20.50
2023-08-10T17:20:41.320Z,20.10
2023-08-10T17:23:09.405Z,20.20
2023-08-10T17:25:37.461Z,19.97
2023-08-10T17:28:08.739Z,20.30
2023-08-10T17:30:39.854Z,19.80
2023-08-10T17:33:07.998Z,19.73
2023-08-10T17:35:36.207Z,20.27
2023-08-10T17:38:04.342Z,20.43
2023-08-10T17:40:32.632Z,19.87
2023-08-10T17:43:01.415Z,20.00
2023-08-10T17:45:30.822Z,20.57
2023-08-10T17:47:59.087Z,20.50
2023-08-10T17:50:27.856Z,20.10
2023-08-10T17:52:55.868Z,20.07
2023-08-10T17:55:25.909Z,20.03
2023-08-10T17:57:54.079Z,20.20
2023-08-10T18:00:22.439Z,20.90
2023-08-10T18:02:52.197Z,20.80
2023-08-10T18:05:20.360Z,20.70
2023-08-10T18:07:48.573Z,20.40
2023-08-10T18:10:17.673Z,20.53
2023-08-10T18:12:45.853Z,20.50
2023-08-10T18:15:14.074Z,20.50
2023-08-10T18:17:42.238Z,20.27
2023-08-10T18:20:12.920Z,20.20
2023-08-10T18:22:41.091Z,20.60
2023-08-10T18:25:09.932Z,20.40
2023-08-10T18:27:37.991Z,20.30
2023-08-10T18:30:06.975Z,19.87
2023-08-10T18:32:35.198Z,20.03
2023-08-10T18:35:03.739Z,20.10
2023-08-10T18:37:33.215Z,20.23
2023-08-10T18:40:01.400Z,20.77
2023-08-10T18:42:29.681Z,20.00
2023-08-10T18:44:57.948Z,20.47
2023-08-10T18:47:26.253Z,20.60
2023-08-10T18:49:54.597Z,20.53
2023-08-10T18:52:22.991Z,21.13
2023-08-10T18:54:52.491Z,20.83
2023-08-10T18:57:20.564Z,20.80
2023-08-10T18:59:48.621Z,20.10
2023-08-10T19:02:16.747Z,19.63
2023-08-10T19:04:44.897Z,20.20
2023-08-10T19:07:13.863Z,21.10
2023-08-10T19:09:42.357Z,21.30
2023-08-10T19:12:14.307Z,21.47
2023-08-10T19:14:42.392Z,21.30
2023-08-10T19:17:10.801Z,21.47
2023-08-10T19:19:39.378Z,21.20
2023-08-10T19:22:09.810Z,21.90
2023-08-10T19:24:37.997Z,23.60
2023-08-10T19:27:06.771Z,23.63
2023-08-10T19:29:40.965Z,23.47
2023-08-10T19:32:09.479Z,21.13
2023-08-10T19:34:37.908Z,21.73
2023-08-10T19:37:06.624Z,22.13
2023-08-10T19:39:37.241Z,22.07
2023-08-10T19:42:09.625Z,22.00
2023-08-10T19:44:39.627Z,21.83
2023-08-10T19:47:08.233Z,22.00
2023-08-10T19:49:36.280Z,21.90
2023-08-10T19:52:05.180Z,21.90
2023-08-10T19:54:33.641Z,22.47
2023-08-10T19:57:01.755Z,22.17
2023-08-10T19:59:30.093Z,22.10
2023-08-10T20:01:59.697Z,21.93
2023-08-10T20:04:28.433Z,21.90
2023-08-10T20:06:56.664Z,22.53
2023-08-10T20:09:24.941Z,21.83
2023-08-10T20:11:52.994Z,22.43
2023-08-10T20:14:22.218Z,22.90
2023-08-10T20:16:50.693Z,22.20
2023-08-10T20:19:20.423Z,23.03
2023-08-10T20:21:48.641Z,23.60
2023-08-10T20:24:17.779Z,23.53
2023-08-10T20:26:46.281Z,23.63
2023-08-10T20:29:14.819Z,24.60
2023-08-10T20:31:43.401Z,24.20
2023-08-10T20:34:11.751Z,24.13
2023-08-10T20:36:41.290Z,24.03
2023-08-10T20:39:11.822Z,24.63
2023-08-10T20:41:40.122Z,24.77
2023-08-10T20:44:08.423Z,23.90
2023-08-10T20:46:36.408Z,24.30
2023-08-10T20:49:04.976Z,23.93
2023-08-10T20:51:33.195Z,24.13
2023-08-10T20:54:02.732Z,24.03
2023-08-10T20:56:30.803Z,24.37
2023-08-10T20:58:59.114Z,25.10
2023-08-10T21:01:27.237Z,24.67
2023-08-10T21:03:56.041Z,24.87
2023-08-10T21:06:24.603Z,24.73
2023-08-10T21:08:52.797Z,24.60
2023-08-10T21:11:22.467Z,25.07
2023-08-10T21:13:51.487Z,24.63
2023-08-10T21:16:19.981Z,25.07
2023-08-10T21:18:48.174Z,25.53
2023-08-10T21:21:17.963Z,25.00
2023-08-10T21:23:46.364Z,26.00
2023-08-10T21:26:14.770Z,25.13
2023-08-10T21:28:44.360Z,25.27
2023-08-10T21:31:15.063Z,25.23
2023-08-10T21:33:43.440Z,25.50
2023-08-10T21:36:13.104Z,26.10
2023-08-10T21:38:41.285Z,27.00
2023-08-10T21:41:09.597Z,26.27
2023-08-10T21:43:38.463Z,26.40
2023-08-10T21:46:08.067Z,26.27
2023-08-10T21:48:36.799Z,26.83
2023-08-10T21:51:05.958Z,26.57
2023-08-10T21:53:34.318Z,27.50
2023-08-10T21:56:02.920Z,26.90
2023-08-10T21:58:31.090Z,26.63
2023-08-10T22:00:59.328Z,26.77
2023-08-10T22:03:28.955Z,26.47
2023-08-10T22:05:57.136Z,27.37
2023-08-10T22:08:25.192Z,26.80
2023-08-10T22:10:53.272Z,27.00
2023-08-10T22:13:21.642Z,27.87
2023-08-10T22:15:49.721Z,27.67
2023-08-10T22:18:18.082Z,27.87
2023-08-10T22:20:48.711Z,28.13
2023-08-10T22:23:16.990Z,27.87
2023-08-10T22:25:45.254Z,27.70
2023-08-10T22:28:14.082Z,27.13
2023-08-10T22:30:42.367Z,27.43
2023-08-10T22:33:10.700Z,26.27
2023-08-10T22:35:38.811Z,26.73
2023-08-10T22:38:08.511Z,27.63
2023-08-10T22:40:36.621Z,27.00
2023-08-10T22:43:04.734Z,27.20
2023-08-10T22:45:33.061Z,26.77
2023-08-10T22:48:01.170Z,27.20
2023-08-10T22:50:29.372Z,27.27
2023-08-10T22:52:59.281Z,28.40
2023-08-10T22:55:29.256Z,28.40
2023-08-10T22:57:57.503Z,29.13
2023-08-10T23:00:26.070Z,28.13
2023-08-10T23:02:54.418Z,29.30
2023-08-10T23:05:22.784Z,29.60
2023-08-10T23:07:50.920Z,29.77
2023-08-10T23:10:19.361Z,30.13
2023-08-10T23:12:49.956Z,29.47
2023-08-10T23:15:19.099Z,30.10
2023-08-10T23:17:47.408Z,30.73
2023-08-10T23:20:16.287Z,32.20
2023-08-10T23:22:45.240Z,31.90
2023-08-10T23:25:14.192Z,32.57
2023-08-10T23:27:43.516Z,32.90
2023-08-10T23:30:13.948Z,33.67
2023-08-10T23:32:42.142Z,32.53
2023-08-10T23:35:11.473Z,32.83
2023-08-10T23:37:40.002Z,33.27
2023-08-10T23:40:11.350Z,33.87
2023-08-10T23:42:42.131Z,34.13
2023-08-10T23:45:13.525Z,34.50
2023-08-10T23:47:41.885Z,35.87
2023-08-10T23:50:11.194Z,36.50
2023-08-10T23:52:39.926Z,37.13
2023-08-10T23:55:09.727Z,36.97
2023-08-10T23:57:38.494Z,38.37
